Belle Isle, Mississippi
Current Conditions -  °F | °C
As of 1:53 PM on Monday 22 Dec 2014 (Local Time) from KASD Reporting Station
Scattered Clouds Scattered Clouds  
Wind Chill: 75°   Ceiling: Unl
Heat Index: 75°   Visibility: 10mi
Dew Point: 66°   Wind: 13mph
Humidity: 73%   Direction: 200°SSW
Pressure: 29.72"   Gusts: 22mph
Location:  30.2285°N, 89.5997°W
Report Text: KASD 221953Z AUTO 20011G19KT 10SM FEW022 SCT032 24/19 A2972 RMK AO2 SLP062 T02390189
Loading
Personal Weather Stations






























Interactive Weather Map New forecast layout! Learn more

10-Day Weather Forecast

Advertisements
Track Severe Weather on mobile